createdAt,value
2019-01-20T00:02:11.057Z,-4.70
2019-01-20T00:04:38.698Z,-4.80
2019-01-20T00:07:06.360Z,-4.80
2019-01-20T00:09:34.092Z,-4.70
2019-01-20T00:12:01.862Z,-4.90
2019-01-20T00:14:29.518Z,-4.90
2019-01-20T00:16:57.223Z,-4.90
2019-01-20T00:19:24.894Z,-4.70
2019-01-20T00:21:52.574Z,-5.00
2019-01-20T00:24:20.304Z,-3.80
2019-01-20T00:26:47.937Z,-4.40
2019-01-20T00:29:15.594Z,-5.00
2019-01-20T00:31:43.320Z,-4.90
2019-01-20T00:34:11.001Z,-4.90
2019-01-20T00:36:38.736Z,-5.10
2019-01-20T00:39:08.024Z,-5.20
2019-01-20T00:41:35.679Z,-5.20
2019-01-20T00:44:03.581Z,-5.30
2019-01-20T00:46:31.249Z,-4.80
2019-01-20T00:48:58.936Z,-5.30
2019-01-20T00:51:26.751Z,-5.30
2019-01-20T00:53:54.451Z,-5.40
2019-01-20T00:56:22.121Z,-4.60
2019-01-20T00:58:49.741Z,-5.40
2019-01-20T01:01:17.403Z,-5.10
2019-01-20T01:03:45.090Z,-5.50
2019-01-20T01:06:12.940Z,-5.50
2019-01-20T01:08:40.659Z,-5.50
2019-01-20T01:11:08.273Z,-5.50
2019-01-20T01:13:36.350Z,-5.60
2019-01-20T01:16:04.103Z,-5.40
2019-01-20T01:18:31.796Z,-5.40
2019-01-20T01:20:59.474Z,-5.70
2019-01-20T01:23:27.157Z,-5.00
2019-01-20T01:25:54.784Z,-5.80
2019-01-20T01:28:22.520Z,-5.80
2019-01-20T01:30:50.167Z,-5.80
2019-01-20T01:33:17.817Z,-5.90
2019-01-20T01:35:45.537Z,-5.90
2019-01-20T01:38:13.162Z,-5.30
2019-01-20T01:40:41.099Z,-5.80
2019-01-20T01:43:08.749Z,-5.80
2019-01-20T01:45:36.397Z,-5.20
2019-01-20T01:48:04.108Z,-4.80
2019-01-20T01:50:31.753Z,-5.90
2019-01-20T01:52:59.413Z,-5.90
2019-01-20T01:55:27.152Z,-4.70
2019-01-20T01:57:54.801Z,-6.00
2019-01-20T02:00:23.059Z,-6.00
2019-01-20T02:02:50.751Z,-6.00
2019-01-20T02:05:18.688Z,-6.00
2019-01-20T02:07:46.510Z,-6.10
2019-01-20T02:10:16.357Z,-5.50
2019-01-20T02:12:44.148Z,-6.10
2019-01-20T02:15:12.849Z,-6.00
2019-01-20T02:17:40.604Z,-5.50
2019-01-20T02:20:09.967Z,-5.90
2019-01-20T02:22:37.612Z,-4.90
2019-01-20T02:25:05.904Z,-6.00
2019-01-20T02:27:33.519Z,-6.30
2019-01-20T02:30:01.215Z,-6.30
2019-01-20T02:32:29.034Z,-5.60
2019-01-20T02:34:56.652Z,-6.30
2019-01-20T02:37:24.298Z,-6.30
2019-01-20T02:39:51.953Z,-6.00
2019-01-20T02:42:19.620Z,-6.30
2019-01-20T02:44:47.271Z,-5.00
2019-01-20T02:47:14.931Z,-5.60
2019-01-20T02:49:42.694Z,-6.40
2019-01-20T02:52:10.329Z,-6.40
2019-01-20T02:54:37.968Z,-6.40
2019-01-20T02:57:05.628Z,-5.90
2019-01-20T02:59:33.232Z,-6.40
2019-01-20T03:02:00.928Z,-6.40
2019-01-20T03:04:28.608Z,-5.80
2019-01-20T03:06:56.331Z,-6.40
2019-01-20T03:09:23.976Z,-6.40
2019-01-20T03:11:51.648Z,-5.50
2019-01-20T03:14:19.295Z,-5.70
2019-01-20T03:16:46.988Z,-6.50
2019-01-20T03:19:14.615Z,-6.60
2019-01-20T03:21:42.494Z,-6.60
2019-01-20T03:24:10.134Z,-6.70
2019-01-20T03:26:37.808Z,-6.70
2019-01-20T03:29:05.446Z,-6.70
2019-01-20T03:31:33.110Z,-6.70
2019-01-20T03:34:00.727Z,-6.40
2019-01-20T03:36:28.364Z,-6.70
2019-01-20T03:38:56.114Z,-6.70
2019-01-20T03:41:23.780Z,-6.80
2019-01-20T03:43:51.445Z,-6.70
2019-01-20T03:46:19.113Z,-5.60
2019-01-20T03:48:46.776Z,-6.50
2019-01-20T03:51:14.441Z,-6.00
2019-01-20T03:53:42.064Z,-6.70
2019-01-20T03:56:09.767Z,-6.70
2019-01-20T03:58:37.410Z,-6.40
2019-01-20T04:01:05.070Z,-5.80
2019-01-20T04:03:32.774Z,-6.80
2019-01-20T04:06:00.451Z,-6.80
2019-01-20T04:08:28.121Z,-6.90
2019-01-20T04:10:55.767Z,-7.00
2019-01-20T04:13:23.442Z,-7.00
2019-01-20T04:15:51.079Z,-7.00
2019-01-20T04:18:18.723Z,-7.00
2019-01-20T04:20:46.406Z,-7.00
2019-01-20T04:23:14.083Z,-7.10
2019-01-20T04:25:41.731Z,-7.10
2019-01-20T04:28:09.550Z,-7.20
2019-01-20T04:30:37.217Z,-7.20
2019-01-20T04:33:04.867Z,-7.20
2019-01-20T04:35:32.546Z,-7.20
2019-01-20T04:38:00.174Z,-7.20
2019-01-20T04:40:28.159Z,-7.10
2019-01-20T04:42:55.814Z,-7.10
2019-01-20T04:45:23.610Z,-7.20
2019-01-20T04:47:51.273Z,-7.20
2019-01-20T04:50:20.805Z,-7.20
2019-01-20T04:52:48.596Z,-7.20
2019-01-20T04:55:16.680Z,-7.20
2019-01-20T04:57:48.337Z,-7.20
2019-01-20T05:00:17.693Z,-7.20
2019-01-20T05:02:45.363Z,-7.20
2019-01-20T05:05:13.205Z,-7.10
2019-01-20T05:07:40.889Z,-6.70
2019-01-20T05:10:10.168Z,-7.10
2019-01-20T05:12:38.078Z,-7.10
2019-01-20T05:15:07.795Z,-7.10
2019-01-20T05:17:35.524Z,-7.10
2019-01-20T05:20:04.419Z,-7.10
2019-01-20T05:22:32.107Z,-7.10
2019-01-20T05:24:59.716Z,-7.10
2019-01-20T05:27:27.469Z,-7.10
2019-01-20T05:29:55.123Z,-7.10
2019-01-20T05:32:22.796Z,-7.00
2019-01-20T05:34:50.448Z,-6.50
2019-01-20T05:37:18.034Z,-7.00
2019-01-20T05:39:45.707Z,-7.00
2019-01-20T05:42:13.339Z,-7.00
2019-01-20T05:44:41.040Z,-7.00
2019-01-20T05:47:08.671Z,-6.90
2019-01-20T05:49:36.374Z,-6.90
2019-01-20T05:52:04.211Z,-6.80
2019-01-20T05:54:31.859Z,-6.90
2019-01-20T05:56:59.540Z,-6.90
2019-01-20T05:59:27.232Z,-6.90
2019-01-20T06:01:54.909Z,-6.50
2019-01-20T06:04:22.552Z,-6.80
2019-01-20T06:06:50.336Z,-6.70
2019-01-20T06:09:17.996Z,-6.70
2019-01-20T06:11:45.660Z,-6.70
2019-01-20T06:14:13.357Z,-6.70
2019-01-20T06:16:40.978Z,-6.50
2019-01-20T06:19:08.628Z,-6.70
2019-01-20T06:21:36.262Z,-6.70
2019-01-20T06:24:04.055Z,-6.60
2019-01-20T06:26:31.681Z,-6.60
2019-01-20T06:28:59.328Z,-6.60
2019-01-20T06:31:27.020Z,-6.60
2019-01-20T06:33:54.711Z,-6.60
2019-01-20T06:36:22.369Z,-6.60
2019-01-20T06:38:50.058Z,-6.60
2019-01-20T06:41:17.680Z,-6.60
2019-01-20T06:43:45.345Z,-6.60
2019-01-20T06:46:13.010Z,-6.20
2019-01-20T06:48:40.659Z,-6.60
2019-01-20T06:51:08.309Z,-6.60
2019-01-20T06:53:36.015Z,-6.60
2019-01-20T06:56:03.991Z,-6.60
2019-01-20T06:58:31.652Z,-6.60
2019-01-20T07:00:59.336Z,-6.60
2019-01-20T07:03:26.996Z,-6.60
2019-01-20T07:05:54.608Z,-6.60
2019-01-20T07:08:22.339Z,-6.50
2019-01-20T07:10:50.013Z,-6.50
2019-01-20T07:13:17.690Z,-6.40
2019-01-20T07:15:45.335Z,-5.10
2019-01-20T07:18:13.022Z,-6.50
2019-01-20T07:20:40.681Z,-6.60
2019-01-20T07:23:08.356Z,-6.60
2019-01-20T07:25:36.060Z,-6.60
2019-01-20T07:28:03.771Z,-5.80
2019-01-20T07:30:31.435Z,-6.60
2019-01-20T07:32:59.083Z,-6.40
2019-01-20T07:35:26.770Z,-5.90
2019-01-20T07:37:54.444Z,-5.50
2019-01-20T07:40:22.849Z,-6.10
2019-01-20T07:42:50.594Z,-4.80
2019-01-20T07:45:18.282Z,-5.20
2019-01-20T07:47:45.923Z,-6.40
2019-01-20T07:50:18.643Z,-5.50
2019-01-20T07:52:46.288Z,-5.90
2019-01-20T07:55:14.068Z,-6.30
2019-01-20T07:57:41.697Z,-5.30
2019-01-20T08:00:11.784Z,-6.20
2019-01-20T08:02:39.552Z,-5.80
2019-01-20T08:05:07.536Z,-6.10
2019-01-20T08:07:35.209Z,-4.50
2019-01-20T08:10:03.352Z,-6.00
2019-01-20T08:12:31.014Z,-5.90
2019-01-20T08:14:58.689Z,-5.80
2019-01-20T08:17:26.471Z,-5.40
2019-01-20T08:19:54.095Z,-5.60
2019-01-20T08:22:21.716Z,-5.00
2019-01-20T08:24:49.390Z,-5.50
2019-01-20T08:27:17.032Z,-5.50
2019-01-20T08:29:44.668Z,-4.70
2019-01-20T08:32:12.334Z,-5.40
2019-01-20T08:34:39.994Z,-5.10
2019-01-20T08:37:07.623Z,-3.70
2019-01-20T08:39:35.358Z,-5.10
2019-01-20T08:42:03.031Z,-4.40
2019-01-20T08:44:33.912Z,-4.50
2019-01-20T08:47:16.429Z,-4.30
2019-01-20T08:49:44.095Z,-4.80
2019-01-20T08:52:11.751Z,-4.70
2019-01-20T08:54:39.401Z,-4.30
2019-01-20T08:57:07.032Z,-3.90
2019-01-20T08:59:34.722Z,-4.50
2019-01-20T09:02:02.408Z,-4.40
2019-01-20T09:04:30.089Z,-4.10
2019-01-20T09:06:57.801Z,-4.20
2019-01-20T09:09:25.466Z,-4.20
2019-01-20T09:11:53.088Z,-4.10
2019-01-20T09:14:20.768Z,-4.00
2019-01-20T09:16:49.060Z,-4.10
2019-01-20T09:19:16.673Z,-3.90
2019-01-20T09:21:44.464Z,-3.90
2019-01-20T09:24:12.103Z,-3.60
2019-01-20T09:26:39.776Z,-3.70
2019-01-20T09:29:07.397Z,-3.70
2019-01-20T09:31:35.078Z,-3.00
2019-01-20T09:34:02.728Z,-3.60
2019-01-20T09:36:30.427Z,-3.50
2019-01-20T09:38:58.092Z,-3.00
2019-01-20T09:41:25.751Z,-3.20
2019-01-20T09:43:53.449Z,-3.30
2019-01-20T09:46:21.116Z,-3.20
2019-01-20T09:48:48.774Z,-3.00
2019-01-20T09:51:16.464Z,-3.10
2019-01-20T09:53:44.146Z,-2.60
2019-01-20T09:56:11.823Z,-2.90
2019-01-20T09:58:39.487Z,-2.90
2019-01-20T10:01:07.131Z,-2.70
2019-01-20T10:03:34.780Z,-3.00
2019-01-20T10:06:02.428Z,-3.00
2019-01-20T10:08:30.080Z,-2.90
2019-01-20T10:10:57.729Z,-2.90
2019-01-20T10:13:25.404Z,-2.50
2019-01-20T10:15:53.095Z,-2.60
2019-01-20T10:18:20.730Z,-2.70
2019-01-20T10:20:48.426Z,-2.10
2019-01-20T10:23:16.086Z,-2.60
2019-01-20T10:25:43.724Z,-2.30
2019-01-20T10:28:13.991Z,-2.50
2019-01-20T10:30:41.647Z,-2.40
2019-01-20T10:33:10.380Z,-2.30
2019-01-20T10:35:48.252Z,-2.20
2019-01-20T10:38:16.376Z,-2.00
2019-01-20T10:40:44.103Z,-2.10
2019-01-20T10:43:11.747Z,-2.10
2019-01-20T10:45:39.421Z,-2.00
2019-01-20T10:48:07.155Z,-2.00
2019-01-20T10:50:34.824Z,-1.90
2019-01-20T10:53:02.465Z,-1.90
2019-01-20T10:55:30.255Z,-1.80
2019-01-20T10:57:57.886Z,-1.90
2019-01-20T11:00:27.835Z,-1.90
2019-01-20T11:02:55.503Z,-1.90
2019-01-20T11:05:25.094Z,-1.60
2019-01-20T11:07:52.747Z,-1.70
2019-01-20T11:10:20.380Z,-1.70
2019-01-20T11:12:48.041Z,-1.60
2019-01-20T11:15:15.822Z,-1.40
2019-01-20T11:17:43.492Z,-1.60
2019-01-20T11:20:12.012Z,-1.40
2019-01-20T11:22:39.671Z,-1.40
2019-01-20T11:25:10.152Z,-1.30
2019-01-20T11:27:37.825Z,-1.40
2019-01-20T11:30:05.959Z,-1.10
2019-01-20T11:32:33.673Z,-1.30
2019-01-20T11:35:01.267Z,-1.20
2019-01-20T11:37:28.945Z,-1.10
2019-01-20T11:39:56.592Z,-1.10
2019-01-20T11:42:24.256Z,-0.70
2019-01-20T11:44:51.964Z,-1.10
2019-01-20T11:47:19.628Z,-1.10
2019-01-20T11:49:47.231Z,-1.30
2019-01-20T11:52:14.914Z,-1.10
2019-01-20T11:54:42.519Z,-1.30
2019-01-20T11:57:10.187Z,-1.30
2019-01-20T11:59:37.845Z,-1.30
2019-01-20T12:02:05.506Z,-1.30
2019-01-20T12:04:33.164Z,-1.30
2019-01-20T12:07:00.843Z,-1.30
2019-01-20T12:09:28.499Z,-1.20
2019-01-20T12:11:56.140Z,-1.20
2019-01-20T12:14:24.191Z,-1.20
2019-01-20T12:16:52.047Z,-1.10
2019-01-20T12:19:19.714Z,-1.10
2019-01-20T12:21:47.355Z,-1.00
2019-01-20T12:24:15.060Z,-0.90
2019-01-20T12:26:42.698Z,-0.90
2019-01-20T12:29:10.340Z,-0.80
2019-01-20T12:31:38.014Z,-0.80
2019-01-20T12:34:05.655Z,-0.60
2019-01-20T12:36:33.315Z,-0.60
2019-01-20T12:39:00.962Z,-1.00
2019-01-20T12:41:28.670Z,-1.10
2019-01-20T12:43:56.328Z,-1.20
2019-01-20T12:46:23.995Z,-1.20
2019-01-20T12:48:51.647Z,-1.30
2019-01-20T12:51:19.352Z,-1.30
2019-01-20T12:53:47.255Z,-1.30
2019-01-20T12:56:14.889Z,-0.90
2019-01-20T12:58:42.547Z,-1.20
2019-01-20T13:01:10.280Z,-1.20
2019-01-20T13:03:37.919Z,-0.70
2019-01-20T13:06:05.546Z,-1.20
2019-01-20T13:08:33.255Z,-1.30
2019-01-20T13:11:00.886Z,-1.20
2019-01-20T13:13:28.579Z,-1.20
2019-01-20T13:15:56.184Z,-1.10
2019-01-20T13:18:23.873Z,-1.00
2019-01-20T13:20:51.760Z,-1.10
2019-01-20T13:23:19.560Z,-1.20
2019-01-20T13:25:47.202Z,-1.20
2019-01-20T13:28:14.832Z,-1.20
2019-01-20T13:30:42.475Z,-1.10
2019-01-20T13:33:10.094Z,-1.20
2019-01-20T13:35:37.780Z,-0.90
2019-01-20T13:38:13.891Z,-1.20
2019-01-20T13:40:44.714Z,-1.20
2019-01-20T13:43:12.355Z,-1.30
2019-01-20T13:45:40.035Z,-1.00
2019-01-20T13:48:07.725Z,-1.30
2019-01-20T13:50:35.346Z,-1.30
2019-01-20T13:53:03.093Z,-1.40
2019-01-20T13:55:30.738Z,-1.40
2019-01-20T13:57:58.426Z,-1.40
2019-01-20T14:00:26.255Z,-1.40
2019-01-20T14:02:53.860Z,-1.50
2019-01-20T14:05:21.623Z,-1.40
2019-01-20T14:07:49.375Z,-1.50
2019-01-20T14:10:17.763Z,-1.50
2019-01-20T14:12:45.621Z,-1.40
2019-01-20T14:15:13.774Z,-1.50
2019-01-20T14:17:41.480Z,-1.50
2019-01-20T14:20:12.644Z,-1.60
2019-01-20T14:22:40.290Z,-1.60
2019-01-20T14:25:09.124Z,-1.70
2019-01-20T14:27:36.747Z,-1.50
2019-01-20T14:30:06.101Z,-1.80
2019-01-20T14:32:33.732Z,-1.80
2019-01-20T14:35:01.406Z,-1.80
2019-01-20T14:37:29.071Z,-1.80
2019-01-20T14:39:56.772Z,-1.60
2019-01-20T14:42:24.436Z,-1.80
2019-01-20T14:44:52.111Z,-1.80
2019-01-20T14:47:19.803Z,-1.90
2019-01-20T14:49:47.416Z,-1.70
2019-01-20T14:52:15.104Z,-1.80
2019-01-20T14:54:42.728Z,-2.10
2019-01-20T14:57:10.448Z,-2.20
2019-01-20T14:59:38.083Z,-1.80
2019-01-20T15:02:05.737Z,-2.20
2019-01-20T15:04:33.431Z,-2.30
2019-01-20T15:07:01.139Z,-2.40
2019-01-20T15:09:28.872Z,-2.40
2019-01-20T15:11:56.506Z,-2.40
2019-01-20T15:14:24.191Z,-2.50
2019-01-20T15:16:51.863Z,-2.30
2019-01-20T15:19:19.536Z,-2.40
2019-01-20T15:21:47.180Z,-2.50
2019-01-20T15:24:14.823Z,-2.40
2019-01-20T15:26:42.486Z,-2.30
2019-01-20T15:29:10.133Z,-2.60
2019-01-20T15:31:37.777Z,-2.20
2019-01-20T15:34:05.428Z,-2.50
2019-01-20T15:36:33.207Z,-2.80
2019-01-20T15:39:00.833Z,-2.80
2019-01-20T15:41:28.478Z,-2.90
2019-01-20T15:43:56.135Z,-2.30
2019-01-20T15:46:23.806Z,-3.00
2019-01-20T15:48:51.460Z,-2.90
2019-01-20T15:51:19.123Z,-3.00
2019-01-20T15:53:46.768Z,-3.10
2019-01-20T15:56:14.416Z,-2.90
2019-01-20T15:58:42.044Z,-3.10
2019-01-20T16:01:09.681Z,-3.20
2019-01-20T16:03:37.399Z,-3.20
2019-01-20T16:06:04.995Z,-3.20
2019-01-20T16:08:32.680Z,-3.30
2019-01-20T16:11:00.347Z,-3.30
2019-01-20T16:13:28.031Z,-3.30
2019-01-20T16:15:55.713Z,-3.40
2019-01-20T16:18:23.405Z,-3.50
2019-01-20T16:20:51.029Z,-3.50
2019-01-20T16:23:18.819Z,-3.50
2019-01-20T16:25:46.489Z,-3.60
2019-01-20T16:28:14.143Z,-3.40
2019-01-20T16:30:41.806Z,-3.20
2019-01-20T16:33:09.482Z,-3.50
2019-01-20T16:35:37.119Z,-3.70
2019-01-20T16:38:06.186Z,-3.60
2019-01-20T16:40:33.891Z,-3.80
2019-01-20T16:43:01.608Z,-3.60
2019-01-20T16:45:41.626Z,-3.40
2019-01-20T16:48:05.537Z,-3.90
2019-01-20T16:50:33.524Z,-3.90
2019-01-20T16:53:01.186Z,-3.90
2019-01-20T16:55:28.816Z,-3.50
2019-01-20T16:57:56.503Z,-3.90
2019-01-20T17:00:26.282Z,-3.90
2019-01-20T17:02:54.140Z,-3.80
2019-01-20T17:05:26.541Z,-3.90
2019-01-20T17:07:51.441Z,-3.90
2019-01-20T17:10:21.237Z,-3.80
2019-01-20T17:12:48.891Z,-3.90
2019-01-20T17:15:21.635Z,-4.00
2019-01-20T17:17:49.333Z,-4.00
2019-01-20T17:20:17.025Z,-4.00
2019-01-20T17:22:45.068Z,-4.10
2019-01-20T17:25:13.336Z,-3.00
2019-01-20T17:27:40.947Z,-4.10
2019-01-20T17:30:11.944Z,-4.10
2019-01-20T17:32:39.745Z,-3.80
2019-01-20T17:35:08.328Z,-3.70
2019-01-20T17:37:35.980Z,-3.80
2019-01-20T17:40:05.040Z,-3.00
2019-01-20T17:42:32.697Z,-4.00
2019-01-20T17:45:00.391Z,-4.00
2019-01-20T17:47:28.087Z,-4.10
2019-01-20T17:49:55.713Z,-3.80
2019-01-20T17:52:23.331Z,-2.80
2019-01-20T17:54:51.027Z,-3.90
2019-01-20T17:57:18.718Z,-3.70
2019-01-20T17:59:46.327Z,-3.80
2019-01-20T18:02:14.049Z,-4.30
2019-01-20T18:04:41.739Z,-4.00
2019-01-20T18:07:09.416Z,-4.50
2019-01-20T18:09:37.100Z,-4.40
2019-01-20T18:12:04.808Z,-4.60
2019-01-20T18:14:32.424Z,-4.60
2019-01-20T18:17:00.084Z,-4.70
2019-01-20T18:19:27.746Z,-4.70
2019-01-20T18:21:55.388Z,-4.20
2019-01-20T18:24:23.071Z,-4.10
2019-01-20T18:26:50.697Z,-4.40
2019-01-20T18:29:18.372Z,-4.80
2019-01-20T18:31:46.049Z,-4.80
2019-01-20T18:34:13.664Z,-4.30
2019-01-20T18:36:41.326Z,-4.80
2019-01-20T18:39:09.049Z,-4.80
2019-01-20T18:41:36.840Z,-4.80
2019-01-20T18:44:04.570Z,-4.80
2019-01-20T18:46:32.211Z,-4.70
2019-01-20T18:48:59.886Z,-4.40
2019-01-20T18:51:27.530Z,-4.90
2019-01-20T18:53:55.223Z,-4.20
2019-01-20T18:56:22.866Z,-4.00
2019-01-20T18:58:50.594Z,-4.30
2019-01-20T19:01:18.195Z,-4.90
2019-01-20T19:03:45.868Z,-4.80
2019-01-20T19:06:13.539Z,-4.50
2019-01-20T19:08:41.251Z,-4.60
2019-01-20T19:11:08.924Z,-4.90
2019-01-20T19:13:36.597Z,-4.40
2019-01-20T19:16:08.906Z,-4.60
2019-01-20T19:18:33.791Z,-4.30
2019-01-20T19:21:01.531Z,-4.60
2019-01-20T19:23:29.177Z,-5.10
2019-01-20T19:25:56.814Z,-5.10
2019-01-20T19:28:24.500Z,-5.10
2019-01-20T19:30:52.170Z,-4.60
2019-01-20T19:33:19.876Z,-4.50
2019-01-20T19:35:47.550Z,-4.90
2019-01-20T19:38:15.224Z,-3.90
2019-01-20T19:40:42.864Z,-4.70
2019-01-20T19:43:10.506Z,-4.50
2019-01-20T19:45:38.132Z,-5.20
2019-01-20T19:48:05.783Z,-5.20
2019-01-20T19:50:33.475Z,-5.20
2019-01-20T19:53:01.175Z,-4.70
2019-01-20T19:55:30.677Z,-4.70
2019-01-20T19:57:58.529Z,-5.20
2019-01-20T20:00:28.229Z,-4.10
2019-01-20T20:02:56.110Z,-4.90
2019-01-20T20:05:23.868Z,-4.80
2019-01-20T20:07:52.368Z,-4.30
2019-01-20T20:10:21.970Z,-5.40
2019-01-20T20:12:49.931Z,-5.50
2019-01-20T20:15:22.025Z,-5.50
2019-01-20T20:17:49.694Z,-5.50
2019-01-20T20:20:17.715Z,-5.50
2019-01-20T20:23:06.312Z,-5.50
2019-01-20T20:25:46.699Z,-6.90
2019-01-20T20:28:26.468Z,-5.80
2019-01-20T20:31:06.586Z,-5.30
2019-01-20T20:33:46.686Z,-5.60
2019-01-20T20:36:26.715Z,-5.90
2019-01-20T20:39:06.632Z,-5.60
2019-01-20T20:41:46.837Z,-5.60
2019-01-20T20:44:27.081Z,-5.60
2019-01-20T20:47:07.207Z,-5.60
2019-01-20T20:49:47.278Z,-6.10
2019-01-20T20:52:27.337Z,-5.30
2019-01-20T20:55:07.430Z,-5.20
2019-01-20T20:57:47.615Z,-5.40
2019-01-20T21:00:27.459Z,-5.70
2019-01-20T21:03:07.708Z,-6.50
2019-01-20T21:05:47.705Z,-5.70
2019-01-20T21:08:27.840Z,-5.70
2019-01-20T21:11:07.940Z,-5.70
2019-01-20T21:13:47.723Z,-6.40
2019-01-20T21:16:27.885Z,-5.70
2019-01-20T21:19:08.060Z,-6.30
2019-01-20T21:21:48.188Z,-5.00
2019-01-20T21:24:28.283Z,-5.90
2019-01-20T21:27:08.104Z,-5.80
2019-01-20T21:29:48.165Z,-5.80
2019-01-20T21:32:28.218Z,-5.50
2019-01-20T21:35:08.445Z,-5.70
2019-01-20T21:37:48.486Z,-6.30
2019-01-20T21:40:28.413Z,-6.80
2019-01-20T21:43:08.533Z,-5.50
2019-01-20T21:45:48.361Z,-5.90
2019-01-20T21:48:28.463Z,-5.90
2019-01-20T21:51:08.390Z,-6.40
2019-01-20T21:53:48.672Z,-6.40
2019-01-20T21:56:29.156Z,-6.00
2019-01-20T21:59:09.209Z,-6.00
2019-01-20T22:01:49.276Z,-6.10
2019-01-20T22:04:29.368Z,-6.00
2019-01-20T22:07:09.258Z,-6.80
2019-01-20T22:09:49.475Z,-5.70
2019-01-20T22:12:29.792Z,-6.10
2019-01-20T22:15:09.547Z,-6.10
2019-01-20T22:17:49.454Z,-6.20
2019-01-20T22:20:29.532Z,-5.70
2019-01-20T22:23:09.804Z,-6.30
2019-01-20T22:25:49.702Z,-7.00
2019-01-20T22:28:29.697Z,-6.40
2019-01-20T22:31:09.559Z,-6.30
2019-01-20T22:33:49.689Z,-6.40
2019-01-20T22:36:30.084Z,-6.80
2019-01-20T22:39:09.835Z,-6.30
2019-01-20T22:41:49.606Z,-6.30
2019-01-20T22:44:29.629Z,-6.40
2019-01-20T22:47:09.327Z,-6.40
2019-01-20T22:49:49.470Z,-6.40
2019-01-20T22:52:29.374Z,-6.40
2019-01-20T22:55:09.435Z,-6.40
2019-01-20T22:57:49.334Z,-6.50
2019-01-20T23:03:23.195Z,-6.50
2019-01-20T23:06:03.183Z,-6.60
2019-01-20T23:08:43.324Z,-6.70
2019-01-20T23:11:23.336Z,-6.70
2019-01-20T23:14:03.504Z,-6.80
2019-01-20T23:16:43.473Z,-7.30
2019-01-20T23:19:23.481Z,-7.40
2019-01-20T23:22:03.597Z,-6.80
2019-01-20T23:24:43.501Z,-7.80
2019-01-20T23:27:23.531Z,-6.80
2019-01-20T23:30:03.598Z,-7.60
2019-01-20T23:32:43.630Z,-6.90
2019-01-20T23:35:23.584Z,-7.70
2019-01-20T23:38:03.425Z,-7.10
2019-01-20T23:40:43.407Z,-7.10
2019-01-20T23:43:23.681Z,-7.10
2019-01-20T23:46:03.876Z,-5.00
2019-01-20T23:48:43.860Z,-7.10
2019-01-20T23:51:23.672Z,-7.10
2019-01-20T23:54:03.987Z,-5.80
2019-01-20T23:56:43.989Z,-7.20
2019-01-20T23:59:24.137Z,-7.30
